Mariazell, Austria
Current Conditions -  °F | °C
As of 11:20 AM on Wednesday 22 Oct 2014 (Local Time) from LOXZ Reporting Station
Broken Clouds Broken Clouds  
Wind Chill: 37°   Ceiling: 6000
Heat Index: 45°   Visibility: 13mi
Dew Point: 32°   Wind: 20mph
Humidity: 61%   Direction: 260°W
Pressure: 29.74"   Gusts: NA
Location:  47.77°N, 15.32°E
Report Text: LOXZ 220920Z 26017KT 20KM FEW035SC BKN060SC 07/00 Q1007 NOSIGRMK SH MON/BKN
Loading
Personal Weather Stations






























Interactive Weather Map
Tropical Storm Tracking
New forecast layout! Learn more

10-Day Weather Forecast

Advertisements
Track Severe Weather on mobile